sensor_id;sensor_type;location;lat;lon;timestamp;P1;durP1;ratioP1;P2;durP2;ratioP2
71164;SDS011;58859;55.132;-1.586;2024-03-08T00:01:47;3.03;;;2.07;;
71164;SDS011;58859;55.132;-1.586;2024-03-08T00:04:13;6.72;;;2.88;;
71164;SDS011;58859;55.132;-1.586;2024-03-08T00:06:38;6.53;;;2.60;;
71164;SDS011;58859;55.132;-1.586;2024-03-08T00:09:04;7.18;;;3.00;;
71164;SDS011;58859;55.132;-1.586;2024-03-08T00:11:32;9.38;;;4.00;;
71164;SDS011;58859;55.132;-1.586;2024-03-08T00:13:58;6.23;;;3.33;;
71164;SDS011;58859;55.132;-1.586;2024-03-08T00:16:24;11.95;;;4.32;;
71164;SDS011;58859;55.132;-1.586;2024-03-08T00:18:49;4.57;;;2.90;;
71164;SDS011;58859;55.132;-1.586;2024-03-08T00:21:15;3.53;;;2.23;;
71164;SDS011;58859;55.132;-1.586;2024-03-08T00:23:40;10.20;;;3.27;;
71164;SDS011;58859;55.132;-1.586;2024-03-08T00:26:06;11.30;;;3.95;;
71164;SDS011;58859;55.132;-1.586;2024-03-08T00:28:32;9.23;;;4.23;;
71164;SDS011;58859;55.132;-1.586;2024-03-08T00:30:59;6.47;;;3.30;;
71164;SDS011;58859;55.132;-1.586;2024-03-08T00:33:25;7.80;;;3.42;;
71164;SDS011;58859;55.132;-1.586;2024-03-08T00:35:50;8.87;;;3.27;;
71164;SDS011;58859;55.132;-1.586;2024-03-08T00:38:16;9.20;;;3.30;;
71164;SDS011;58859;55.132;-1.586;2024-03-08T00:40:41;4.00;;;2.07;;
71164;SDS011;58859;55.132;-1.586;2024-03-08T00:43:07;7.00;;;2.97;;
71164;SDS011;58859;55.132;-1.586;2024-03-08T00:45:32;7.50;;;2.97;;
71164;SDS011;58859;55.132;-1.586;2024-03-08T00:47:57;7.37;;;3.57;;
71164;SDS011;58859;55.132;-1.586;2024-03-08T00:50:23;8.60;;;4.13;;
71164;SDS011;58859;55.132;-1.586;2024-03-08T00:52:48;11.93;;;3.90;;
71164;SDS011;58859;55.132;-1.586;2024-03-08T00:55:14;8.87;;;3.87;;
71164;SDS011;58859;55.132;-1.586;2024-03-08T00:57:40;6.22;;;3.10;;
71164;SDS011;58859;55.132;-1.586;2024-03-08T01:00:06;11.03;;;3.87;;
71164;SDS011;58859;55.132;-1.586;2024-03-08T01:02:35;9.27;;;3.97;;
71164;SDS011;58859;55.132;-1.586;2024-03-08T01:05:01;8.55;;;3.10;;
71164;SDS011;58859;55.132;-1.586;2024-03-08T01:07:27;9.57;;;4.28;;
71164;SDS011;58859;55.132;-1.586;2024-03-08T01:09:52;10.07;;;3.30;;
71164;SDS011;58859;55.132;-1.586;2024-03-08T01:12:17;10.03;;;3.83;;
71164;SDS011;58859;55.132;-1.586;2024-03-08T01:14:43;10.90;;;3.43;;
71164;SDS011;58859;55.132;-1.586;2024-03-08T01:17:08;8.90;;;3.07;;
71164;SDS011;58859;55.132;-1.586;2024-03-08T01:19:34;7.35;;;3.53;;
71164;SDS011;58859;55.132;-1.586;2024-03-08T01:22:00;7.87;;;3.13;;
71164;SDS011;58859;55.132;-1.586;2024-03-08T01:24:25;5.35;;;2.88;;
71164;SDS011;58859;55.132;-1.586;2024-03-08T01:26:51;5.13;;;3.57;;
71164;SDS011;58859;55.132;-1.586;2024-03-08T01:29:16;8.23;;;4.03;;
71164;SDS011;58859;55.132;-1.586;2024-03-08T01:31:42;17.80;;;5.90;;
71164;SDS011;58859;55.132;-1.586;2024-03-08T01:34:07;11.82;;;3.92;;
71164;SDS011;58859;55.132;-1.586;2024-03-08T01:36:33;19.43;;;4.97;;
71164;SDS011;58859;55.132;-1.586;2024-03-08T01:38:58;14.03;;;4.87;;
71164;SDS011;58859;55.132;-1.586;2024-03-08T01:41:24;14.67;;;6.53;;
71164;SDS011;58859;55.132;-1.586;2024-03-08T01:43:49;8.05;;;4.43;;
71164;SDS011;58859;55.132;-1.586;2024-03-08T01:46:16;6.77;;;3.33;;
71164;SDS011;58859;55.132;-1.586;2024-03-08T01:48:47;14.35;;;5.03;;
71164;SDS011;58859;55.132;-1.586;2024-03-08T01:51:13;14.60;;;5.15;;
71164;SDS011;58859;55.132;-1.586;2024-03-08T01:53:40;6.60;;;3.33;;
71164;SDS011;58859;55.132;-1.586;2024-03-08T01:56:08;13.07;;;4.90;;
71164;SDS011;58859;55.132;-1.586;2024-03-08T01:58:34;8.80;;;2.93;;
71164;SDS011;58859;55.132;-1.586;2024-03-08T02:01:00;12.18;;;3.90;;
71164;SDS011;58859;55.132;-1.586;2024-03-08T02:03:28;5.80;;;3.40;;
71164;SDS011;58859;55.132;-1.586;2024-03-08T02:05:56;5.65;;;3.67;;
71164;SDS011;58859;55.132;-1.586;2024-03-08T02:08:24;10.23;;;4.10;;
71164;SDS011;58859;55.132;-1.586;2024-03-08T02:10:49;21.77;;;5.68;;
71164;SDS011;58859;55.132;-1.586;2024-03-08T02:13:16;9.38;;;5.00;;
71164;SDS011;58859;55.132;-1.586;2024-03-08T02:15:54;14.90;;;5.00;;
71164;SDS011;58859;55.132;-1.586;2024-03-08T02:18:26;10.25;;;5.32;;
71164;SDS011;58859;55.132;-1.586;2024-03-08T02:20:53;13.43;;;6.00;;
71164;SDS011;58859;55.132;-1.586;2024-03-08T02:23:19;17.15;;;6.40;;
71164;SDS011;58859;55.132;-1.586;2024-03-08T02:25:45;17.23;;;6.90;;
71164;SDS011;58859;55.132;-1.586;2024-03-08T02:28:11;15.77;;;6.90;;
71164;SDS011;58859;55.132;-1.586;2024-03-08T02:30:38;17.52;;;6.90;;
71164;SDS011;58859;55.132;-1.586;2024-03-08T02:33:04;11.43;;;5.75;;
71164;SDS011;58859;55.132;-1.586;2024-03-08T02:35:30;20.73;;;7.47;;
71164;SDS011;58859;55.132;-1.586;2024-03-08T02:37:55;8.47;;;3.80;;
71164;SDS011;58859;55.132;-1.586;2024-03-08T02:40:20;10.30;;;4.97;;
71164;SDS011;58859;55.132;-1.586;2024-03-08T02:42:47;12.65;;;5.97;;
71164;SDS011;58859;55.132;-1.586;2024-03-08T02:45:12;11.00;;;4.80;;
71164;SDS011;58859;55.132;-1.586;2024-03-08T02:47:38;12.23;;;4.90;;
71164;SDS011;58859;55.132;-1.586;2024-03-08T02:50:04;10.90;;;4.60;;
71164;SDS011;58859;55.132;-1.586;2024-03-08T02:52:33;3.70;;;2.65;;
71164;SDS011;58859;55.132;-1.586;2024-03-08T02:55:01;8.88;;;3.97;;
71164;SDS011;58859;55.132;-1.586;2024-03-08T02:57:27;7.88;;;4.13;;
71164;SDS011;58859;55.132;-1.586;2024-03-08T02:59:55;9.67;;;4.63;;
71164;SDS011;58859;55.132;-1.586;2024-03-08T03:02:21;6.78;;;4.40;;
71164;SDS011;58859;55.132;-1.586;2024-03-08T03:04:48;6.47;;;3.53;;
71164;SDS011;58859;55.132;-1.586;2024-03-08T03:07:13;8.70;;;5.10;;
71164;SDS011;58859;55.132;-1.586;2024-03-08T03:09:39;10.50;;;3.60;;
71164;SDS011;58859;55.132;-1.586;2024-03-08T03:12:04;8.27;;;3.10;;
71164;SDS011;58859;55.132;-1.586;2024-03-08T03:14:32;17.33;;;3.75;;
71164;SDS011;58859;55.132;-1.586;2024-03-08T03:16:58;10.15;;;3.97;;
71164;SDS011;58859;55.132;-1.586;2024-03-08T03:19:24;5.17;;;2.83;;
71164;SDS011;58859;55.132;-1.586;2024-03-08T03:21:49;10.20;;;3.17;;
71164;SDS011;58859;55.132;-1.586;2024-03-08T03:24:15;17.03;;;4.70;;
71164;SDS011;58859;55.132;-1.586;2024-03-08T03:26:41;7.97;;;2.40;;
71164;SDS011;58859;55.132;-1.586;2024-03-08T03:29:08;8.35;;;3.85;;
71164;SDS011;58859;55.132;-1.586;2024-03-08T03:31:35;7.45;;;4.00;;
71164;SDS011;58859;55.132;-1.586;2024-03-08T03:34:01;9.47;;;2.87;;
71164;SDS011;58859;55.132;-1.586;2024-03-08T03:36:29;14.00;;;5.72;;
71164;SDS011;58859;55.132;-1.586;2024-03-08T03:38:55;9.38;;;4.50;;
71164;SDS011;58859;55.132;-1.586;2024-03-08T03:41:35;9.10;;;3.80;;
71164;SDS011;58859;55.132;-1.586;2024-03-08T03:44:01;8.03;;;4.50;;
71164;SDS011;58859;55.132;-1.586;2024-03-08T03:46:26;12.88;;;4.85;;
71164;SDS011;58859;55.132;-1.586;2024-03-08T03:48:52;11.73;;;5.05;;
71164;SDS011;58859;55.132;-1.586;2024-03-08T03:51:19;5.23;;;2.63;;
71164;SDS011;58859;55.132;-1.586;2024-03-08T03:53:45;16.42;;;5.35;;
71164;SDS011;58859;55.132;-1.586;2024-03-08T03:56:10;3.80;;;3.42;;
71164;SDS011;58859;55.132;-1.586;2024-03-08T03:58:36;9.23;;;4.85;;
71164;SDS011;58859;55.132;-1.586;2024-03-08T04:01:01;4.60;;;3.33;;
71164;SDS011;58859;55.132;-1.586;2024-03-08T04:03:29;5.55;;;3.03;;
71164;SDS011;58859;55.132;-1.586;2024-03-08T04:05:54;14.00;;;4.73;;
71164;SDS011;58859;55.132;-1.586;2024-03-08T04:08:20;8.47;;;3.73;;
71164;SDS011;58859;55.132;-1.586;2024-03-08T04:10:45;10.05;;;4.32;;
71164;SDS011;58859;55.132;-1.586;2024-03-08T04:13:11;14.57;;;4.53;;
71164;SDS011;58859;55.132;-1.586;2024-03-08T04:15:36;9.30;;;3.57;;
71164;SDS011;58859;55.132;-1.586;2024-03-08T04:18:03;15.40;;;4.15;;
71164;SDS011;58859;55.132;-1.586;2024-03-08T04:20:29;9.15;;;4.38;;
71164;SDS011;58859;55.132;-1.586;2024-03-08T04:22:55;7.57;;;4.22;;
71164;SDS011;58859;55.132;-1.586;2024-03-08T04:25:21;5.13;;;3.07;;
71164;SDS011;58859;55.132;-1.586;2024-03-08T04:27:46;9.95;;;4.32;;
71164;SDS011;58859;55.132;-1.586;2024-03-08T04:30:13;7.40;;;3.50;;
71164;SDS011;58859;55.132;-1.586;2024-03-08T04:32:39;8.23;;;3.40;;
71164;SDS011;58859;55.132;-1.586;2024-03-08T04:35:06;6.30;;;2.63;;
71164;SDS011;58859;55.132;-1.586;2024-03-08T04:37:31;12.52;;;4.18;;
71164;SDS011;58859;55.132;-1.586;2024-03-08T04:39:57;7.77;;;3.23;;
71164;SDS011;58859;55.132;-1.586;2024-03-08T04:42:23;8.63;;;2.92;;
71164;SDS011;58859;55.132;-1.586;2024-03-08T04:44:50;6.43;;;3.45;;
71164;SDS011;58859;55.132;-1.586;2024-03-08T04:47:15;8.70;;;2.93;;
71164;SDS011;58859;55.132;-1.586;2024-03-08T04:49:43;10.43;;;4.35;;
71164;SDS011;58859;55.132;-1.586;2024-03-08T04:52:08;4.37;;;2.63;;
71164;SDS011;58859;55.132;-1.586;2024-03-08T04:54:34;11.07;;;4.13;;
71164;SDS011;58859;55.132;-1.586;2024-03-08T04:56:59;8.63;;;3.60;;
71164;SDS011;58859;55.132;-1.586;2024-03-08T04:59:25;6.37;;;3.30;;
71164;SDS011;58859;55.132;-1.586;2024-03-08T05:01:52;7.78;;;3.47;;
71164;SDS011;58859;55.132;-1.586;2024-03-08T05:04:17;7.83;;;3.93;;
71164;SDS011;58859;55.132;-1.586;2024-03-08T05:06:43;5.37;;;3.23;;
71164;SDS011;58859;55.132;-1.586;2024-03-08T05:09:08;6.43;;;3.17;;
71164;SDS011;58859;55.132;-1.586;2024-03-08T05:11:44;7.70;;;4.30;;
71164;SDS011;58859;55.132;-1.586;2024-03-08T05:14:10;6.15;;;3.13;;
71164;SDS011;58859;55.132;-1.586;2024-03-08T05:16:35;8.27;;;3.45;;
71164;SDS011;58859;55.132;-1.586;2024-03-08T05:19:01;10.97;;;3.57;;
71164;SDS011;58859;55.132;-1.586;2024-03-08T05:21:27;5.57;;;3.55;;
71164;SDS011;58859;55.132;-1.586;2024-03-08T05:23:53;6.77;;;3.20;;
71164;SDS011;58859;55.132;-1.586;2024-03-08T05:26:19;6.97;;;3.78;;
71164;SDS011;58859;55.132;-1.586;2024-03-08T05:28:45;6.37;;;3.87;;
71164;SDS011;58859;55.132;-1.586;2024-03-08T05:31:17;6.28;;;4.20;;
71164;SDS011;58859;55.132;-1.586;2024-03-08T05:33:47;5.95;;;3.00;;
71164;SDS011;58859;55.132;-1.586;2024-03-08T05:36:13;9.70;;;3.92;;
71164;SDS011;58859;55.132;-1.586;2024-03-08T05:38:40;13.02;;;4.65;;
71164;SDS011;58859;55.132;-1.586;2024-03-08T05:41:07;6.47;;;2.53;;
71164;SDS011;58859;55.132;-1.586;2024-03-08T05:43:33;15.07;;;5.70;;
71164;SDS011;58859;55.132;-1.586;2024-03-08T05:45:58;7.47;;;3.40;;
71164;SDS011;58859;55.132;-1.586;2024-03-08T05:48:23;6.63;;;4.00;;
71164;SDS011;58859;55.132;-1.586;2024-03-08T05:50:50;10.70;;;4.22;;
71164;SDS011;58859;55.132;-1.586;2024-03-08T05:53:15;6.90;;;3.37;;
71164;SDS011;58859;55.132;-1.586;2024-03-08T05:55:41;8.17;;;4.60;;
71164;SDS011;58859;55.132;-1.586;2024-03-08T05:58:06;11.45;;;3.97;;
71164;SDS011;58859;55.132;-1.586;2024-03-08T06:00:33;14.27;;;5.43;;
71164;SDS011;58859;55.132;-1.586;2024-03-08T06:02:59;6.93;;;2.55;;
71164;SDS011;58859;55.132;-1.586;2024-03-08T06:05:24;9.77;;;3.77;;
71164;SDS011;58859;55.132;-1.586;2024-03-08T06:07:50;7.55;;;3.97;;
71164;SDS011;58859;55.132;-1.586;2024-03-08T06:10:18;8.90;;;4.30;;
71164;SDS011;58859;55.132;-1.586;2024-03-08T06:12:44;8.30;;;5.22;;
71164;SDS011;58859;55.132;-1.586;2024-03-08T06:15:10;7.03;;;4.13;;
71164;SDS011;58859;55.132;-1.586;2024-03-08T06:17:40;7.07;;;3.85;;
71164;SDS011;58859;55.132;-1.586;2024-03-08T06:20:05;6.63;;;3.03;;
71164;SDS011;58859;55.132;-1.586;2024-03-08T06:22:41;13.80;;;4.78;;
71164;SDS011;58859;55.132;-1.586;2024-03-08T06:25:13;9.60;;;4.32;;
71164;SDS011;58859;55.132;-1.586;2024-03-08T06:27:41;12.75;;;5.15;;
71164;SDS011;58859;55.132;-1.586;2024-03-08T06:30:07;12.45;;;4.90;;
71164;SDS011;58859;55.132;-1.586;2024-03-08T06:32:35;7.60;;;3.80;;
71164;SDS011;58859;55.132;-1.586;2024-03-08T06:35:04;4.75;;;3.00;;
71164;SDS011;58859;55.132;-1.586;2024-03-08T06:37:33;7.10;;;3.83;;
71164;SDS011;58859;55.132;-1.586;2024-03-08T06:39:59;7.50;;;3.72;;
71164;SDS011;58859;55.132;-1.586;2024-03-08T06:42:26;5.73;;;3.37;;
71164;SDS011;58859;55.132;-1.586;2024-03-08T06:44:54;11.10;;;4.88;;
71164;SDS011;58859;55.132;-1.586;2024-03-08T06:47:24;8.80;;;3.78;;
71164;SDS011;58859;55.132;-1.586;2024-03-08T06:49:50;8.57;;;3.83;;
71164;SDS011;58859;55.132;-1.586;2024-03-08T06:52:17;10.13;;;4.90;;
71164;SDS011;58859;55.132;-1.586;2024-03-08T06:54:42;7.38;;;4.50;;
71164;SDS011;58859;55.132;-1.586;2024-03-08T06:57:08;12.33;;;6.40;;
71164;SDS011;58859;55.132;-1.586;2024-03-08T06:59:35;12.52;;;5.85;;
71164;SDS011;58859;55.132;-1.586;2024-03-08T07:02:01;19.30;;;5.50;;
71164;SDS011;58859;55.132;-1.586;2024-03-08T07:04:27;9.63;;;3.70;;
71164;SDS011;58859;55.132;-1.586;2024-03-08T07:06:57;10.57;;;4.68;;
71164;SDS011;58859;55.132;-1.586;2024-03-08T07:09:26;13.43;;;4.93;;
71164;SDS011;58859;55.132;-1.586;2024-03-08T07:11:51;14.10;;;3.75;;
71164;SDS011;58859;55.132;-1.586;2024-03-08T07:14:21;13.23;;;5.63;;
71164;SDS011;58859;55.132;-1.586;2024-03-08T07:16:47;12.68;;;5.07;;
71164;SDS011;58859;55.132;-1.586;2024-03-08T07:19:13;8.20;;;4.82;;
71164;SDS011;58859;55.132;-1.586;2024-03-08T07:21:38;11.25;;;5.13;;
71164;SDS011;58859;55.132;-1.586;2024-03-08T07:24:03;6.67;;;4.00;;
71164;SDS011;58859;55.132;-1.586;2024-03-08T07:26:46;7.78;;;4.00;;
71164;SDS011;58859;55.132;-1.586;2024-03-08T07:29:15;8.70;;;4.37;;
71164;SDS011;58859;55.132;-1.586;2024-03-08T07:31:41;6.60;;;3.97;;
71164;SDS011;58859;55.132;-1.586;2024-03-08T07:34:06;9.63;;;4.37;;
71164;SDS011;58859;55.132;-1.586;2024-03-08T07:36:33;15.02;;;5.05;;
71164;SDS011;58859;55.132;-1.586;2024-03-08T07:38:59;17.65;;;6.50;;
71164;SDS011;58859;55.132;-1.586;2024-03-08T07:41:24;13.80;;;5.33;;
71164;SDS011;58859;55.132;-1.586;2024-03-08T07:43:50;18.85;;;6.13;;
71164;SDS011;58859;55.132;-1.586;2024-03-08T07:46:17;8.13;;;4.88;;
71164;SDS011;58859;55.132;-1.586;2024-03-08T07:48:43;16.00;;;6.50;;
71164;SDS011;58859;55.132;-1.586;2024-03-08T07:51:10;12.03;;;5.57;;
71164;SDS011;58859;55.132;-1.586;2024-03-08T07:53:37;16.33;;;6.05;;
71164;SDS011;58859;55.132;-1.586;2024-03-08T07:56:03;10.73;;;5.45;;
71164;SDS011;58859;55.132;-1.586;2024-03-08T07:58:30;17.15;;;7.00;;
71164;SDS011;58859;55.132;-1.586;2024-03-08T08:00:55;12.73;;;5.20;;
71164;SDS011;58859;55.132;-1.586;2024-03-08T08:03:21;11.33;;;6.10;;
71164;SDS011;58859;55.132;-1.586;2024-03-08T08:05:46;15.65;;;6.07;;
71164;SDS011;58859;55.132;-1.586;2024-03-08T08:08:14;10.47;;;5.57;;
71164;SDS011;58859;55.132;-1.586;2024-03-08T08:10:40;13.82;;;7.75;;
71164;SDS011;58859;55.132;-1.586;2024-03-08T08:13:05;10.07;;;4.73;;
71164;SDS011;58859;55.132;-1.586;2024-03-08T08:15:31;12.15;;;6.53;;
71164;SDS011;58859;55.132;-1.586;2024-03-08T08:17:58;13.00;;;5.03;;
71164;SDS011;58859;55.132;-1.586;2024-03-08T08:20:23;13.67;;;6.23;;
71164;SDS011;58859;55.132;-1.586;2024-03-08T08:22:49;6.37;;;4.20;;
71164;SDS011;58859;55.132;-1.586;2024-03-08T08:25:14;9.87;;;5.40;;
71164;SDS011;58859;55.132;-1.586;2024-03-08T08:27:40;16.10;;;7.22;;
71164;SDS011;58859;55.132;-1.586;2024-03-08T08:30:07;14.65;;;8.13;;
71164;SDS011;58859;55.132;-1.586;2024-03-08T08:32:34;13.57;;;6.20;;
71164;SDS011;58859;55.132;-1.586;2024-03-08T08:35:01;11.60;;;6.13;;
71164;SDS011;58859;55.132;-1.586;2024-03-08T08:37:27;15.40;;;6.20;;
71164;SDS011;58859;55.132;-1.586;2024-03-08T08:39:53;19.95;;;6.85;;
71164;SDS011;58859;55.132;-1.586;2024-03-08T08:42:19;11.63;;;6.83;;
71164;SDS011;58859;55.132;-1.586;2024-03-08T08:44:44;12.18;;;5.78;;
71164;SDS011;58859;55.132;-1.586;2024-03-08T08:47:11;18.13;;;8.07;;
71164;SDS011;58859;55.132;-1.586;2024-03-08T08:49:38;20.17;;;9.07;;
71164;SDS011;58859;55.132;-1.586;2024-03-08T08:52:03;19.48;;;8.35;;
71164;SDS011;58859;55.132;-1.586;2024-03-08T08:54:29;19.90;;;8.50;;
71164;SDS011;58859;55.132;-1.586;2024-03-08T08:56:54;17.97;;;7.77;;
71164;SDS011;58859;55.132;-1.586;2024-03-08T08:59:20;22.67;;;8.27;;
71164;SDS011;58859;55.132;-1.586;2024-03-08T09:01:45;15.15;;;6.78;;
71164;SDS011;58859;55.132;-1.586;2024-03-08T09:04:15;19.33;;;8.90;;
71164;SDS011;58859;55.132;-1.586;2024-03-08T09:06:41;20.77;;;8.93;;
71164;SDS011;58859;55.132;-1.586;2024-03-08T09:09:07;21.55;;;9.40;;
71164;SDS011;58859;55.132;-1.586;2024-03-08T09:11:36;19.47;;;8.17;;
71164;SDS011;58859;55.132;-1.586;2024-03-08T09:14:06;21.45;;;9.27;;
71164;SDS011;58859;55.132;-1.586;2024-03-08T09:16:32;24.15;;;8.93;;
71164;SDS011;58859;55.132;-1.586;2024-03-08T09:18:58;14.50;;;6.50;;
71164;SDS011;58859;55.132;-1.586;2024-03-08T09:21:23;21.65;;;9.30;;
71164;SDS011;58859;55.132;-1.586;2024-03-08T09:23:49;26.33;;;11.35;;
71164;SDS011;58859;55.132;-1.586;2024-03-08T09:26:15;20.35;;;8.55;;
71164;SDS011;58859;55.132;-1.586;2024-03-08T09:28:40;19.00;;;8.93;;
71164;SDS011;58859;55.132;-1.586;2024-03-08T09:31:06;28.10;;;11.17;;
71164;SDS011;58859;55.132;-1.586;2024-03-08T09:33:31;18.05;;;7.72;;
71164;SDS011;58859;55.132;-1.586;2024-03-08T09:35:57;21.17;;;8.27;;
71164;SDS011;58859;55.132;-1.586;2024-03-08T09:38:25;23.17;;;10.60;;
71164;SDS011;58859;55.132;-1.586;2024-03-08T09:40:51;26.90;;;11.30;;
71164;SDS011;58859;55.132;-1.586;2024-03-08T09:43:18;27.92;;;10.60;;
71164;SDS011;58859;55.132;-1.586;2024-03-08T09:45:43;27.13;;;9.57;;
71164;SDS011;58859;55.132;-1.586;2024-03-08T09:48:11;23.98;;;10.27;;
71164;SDS011;58859;55.132;-1.586;2024-03-08T09:50:40;16.20;;;8.13;;
71164;SDS011;58859;55.132;-1.586;2024-03-08T09:53:06;23.23;;;9.77;;
71164;SDS011;58859;55.132;-1.586;2024-03-08T09:55:34;27.45;;;10.95;;
71164;SDS011;58859;55.132;-1.586;2024-03-08T09:58:06;27.58;;;12.57;;
71164;SDS011;58859;55.132;-1.586;2024-03-08T10:00:55;21.30;;;9.77;;
71164;SDS011;58859;55.132;-1.586;2024-03-08T10:03:26;26.27;;;11.15;;
71164;SDS011;58859;55.132;-1.586;2024-03-08T10:05:52;20.80;;;8.43;;
71164;SDS011;58859;55.132;-1.586;2024-03-08T10:08:21;17.85;;;8.25;;
71164;SDS011;58859;55.132;-1.586;2024-03-08T10:10:47;17.63;;;8.83;;
71164;SDS011;58859;55.132;-1.586;2024-03-08T10:13:12;19.70;;;9.63;;
71164;SDS011;58859;55.132;-1.586;2024-03-08T10:15:39;28.33;;;12.73;;
71164;SDS011;58859;55.132;-1.586;2024-03-08T10:18:05;19.20;;;8.98;;
71164;SDS011;58859;55.132;-1.586;2024-03-08T10:20:31;18.27;;;8.70;;
71164;SDS011;58859;55.132;-1.586;2024-03-08T10:23:02;19.10;;;8.23;;
71164;SDS011;58859;55.132;-1.586;2024-03-08T10:25:33;23.50;;;11.37;;
71164;SDS011;58859;55.132;-1.586;2024-03-08T10:27:59;24.92;;;8.88;;
71164;SDS011;58859;55.132;-1.586;2024-03-08T10:30:25;18.15;;;8.23;;
71164;SDS011;58859;55.132;-1.586;2024-03-08T10:32:50;17.00;;;7.90;;
71164;SDS011;58859;55.132;-1.586;2024-03-08T10:35:17;21.48;;;10.40;;
71164;SDS011;58859;55.132;-1.586;2024-03-08T10:37:47;18.70;;;9.07;;
71164;SDS011;58859;55.132;-1.586;2024-03-08T10:40:17;26.42;;;14.13;;
71164;SDS011;58859;55.132;-1.586;2024-03-08T10:43:01;17.10;;;9.20;;
71164;SDS011;58859;55.132;-1.586;2024-03-08T10:45:35;24.35;;;11.25;;
71164;SDS011;58859;55.132;-1.586;2024-03-08T10:48:15;16.00;;;7.75;;
71164;SDS011;58859;55.132;-1.586;2024-03-08T10:51:02;15.97;;;8.77;;
71164;SDS011;58859;55.132;-1.586;2024-03-08T10:53:28;15.98;;;8.27;;
71164;SDS011;58859;55.132;-1.586;2024-03-08T10:55:57;26.33;;;13.65;;
71164;SDS011;58859;55.132;-1.586;2024-03-08T10:58:24;31.40;;;12.63;;
71164;SDS011;58859;55.132;-1.586;2024-03-08T11:00:54;18.45;;;8.77;;
71164;SDS011;58859;55.132;-1.586;2024-03-08T11:06:05;31.00;;;13.38;;
71164;SDS011;58859;55.132;-1.586;2024-03-08T11:08:33;15.25;;;8.60;;
71164;SDS011;58859;55.132;-1.586;2024-03-08T11:10:58;19.42;;;11.13;;
71164;SDS011;58859;55.132;-1.586;2024-03-08T11:13:40;20.13;;;10.40;;
71164;SDS011;58859;55.132;-1.586;2024-03-08T11:16:11;23.33;;;12.10;;
71164;SDS011;58859;55.132;-1.586;2024-03-08T11:19:00;18.98;;;10.15;;
71164;SDS011;58859;55.132;-1.586;2024-03-08T11:21:31;22.37;;;9.83;;
71164;SDS011;58859;55.132;-1.586;2024-03-08T11:24:08;28.90;;;13.95;;
71164;SDS011;58859;55.132;-1.586;2024-03-08T11:26:34;22.17;;;9.95;;
71164;SDS011;58859;55.132;-1.586;2024-03-08T11:31:51;28.95;;;12.60;;
71164;SDS011;58859;55.132;-1.586;2024-03-08T11:34:16;20.23;;;9.40;;
71164;SDS011;58859;55.132;-1.586;2024-03-08T11:36:41;22.83;;;9.20;;
71164;SDS011;58859;55.132;-1.586;2024-03-08T11:39:07;24.80;;;10.53;;
71164;SDS011;58859;55.132;-1.586;2024-03-08T11:41:39;21.23;;;8.40;;
71164;SDS011;58859;55.132;-1.586;2024-03-08T11:44:06;18.63;;;10.13;;
71164;SDS011;58859;55.132;-1.586;2024-03-08T11:46:32;19.67;;;10.90;;
71164;SDS011;58859;55.132;-1.586;2024-03-08T11:48:59;20.67;;;9.45;;
71164;SDS011;58859;55.132;-1.586;2024-03-08T11:51:25;22.27;;;10.35;;
71164;SDS011;58859;55.132;-1.586;2024-03-08T11:53:51;32.95;;;14.07;;
71164;SDS011;58859;55.132;-1.586;2024-03-08T11:56:18;19.40;;;10.27;;
71164;SDS011;58859;55.132;-1.586;2024-03-08T11:58:55;18.87;;;10.47;;
71164;SDS011;58859;55.132;-1.586;2024-03-08T12:01:22;29.08;;;13.48;;
71164;SDS011;58859;55.132;-1.586;2024-03-08T12:03:57;22.85;;;10.98;;
71164;SDS011;58859;55.132;-1.586;2024-03-08T12:06:26;28.30;;;12.73;;
71164;SDS011;58859;55.132;-1.586;2024-03-08T12:09:02;25.05;;;11.15;;
71164;SDS011;58859;55.132;-1.586;2024-03-08T12:11:27;28.87;;;10.33;;
71164;SDS011;58859;55.132;-1.586;2024-03-08T12:13:53;21.03;;;10.57;;
71164;SDS011;58859;55.132;-1.586;2024-03-08T12:16:19;23.27;;;11.52;;
71164;SDS011;58859;55.132;-1.586;2024-03-08T12:18:46;24.27;;;10.82;;
71164;SDS011;58859;55.132;-1.586;2024-03-08T12:21:13;23.97;;;9.50;;
71164;SDS011;58859;55.132;-1.586;2024-03-08T12:23:42;20.25;;;10.82;;
71164;SDS011;58859;55.132;-1.586;2024-03-08T12:26:12;23.60;;;11.95;;
71164;SDS011;58859;55.132;-1.586;2024-03-08T12:28:40;38.03;;;16.10;;
71164;SDS011;58859;55.132;-1.586;2024-03-08T12:31:08;20.42;;;9.30;;
71164;SDS011;58859;55.132;-1.586;2024-03-08T12:34:00;24.17;;;11.37;;
71164;SDS011;58859;55.132;-1.586;2024-03-08T12:36:25;20.38;;;9.40;;
71164;SDS011;58859;55.132;-1.586;2024-03-08T12:38:51;23.83;;;10.77;;
71164;SDS011;58859;55.132;-1.586;2024-03-08T12:41:19;28.38;;;13.65;;
71164;SDS011;58859;55.132;-1.586;2024-03-08T12:43:46;22.95;;;12.75;;
71164;SDS011;58859;55.132;-1.586;2024-03-08T12:46:18;18.92;;;10.30;;
71164;SDS011;58859;55.132;-1.586;2024-03-08T12:48:51;19.45;;;9.77;;
71164;SDS011;58859;55.132;-1.586;2024-03-08T12:51:18;18.73;;;10.23;;
71164;SDS011;58859;55.132;-1.586;2024-03-08T12:53:45;21.35;;;11.88;;
71164;SDS011;58859;55.132;-1.586;2024-03-08T12:56:12;18.33;;;9.77;;
71164;SDS011;58859;55.132;-1.586;2024-03-08T12:58:59;20.15;;;9.65;;
71164;SDS011;58859;55.132;-1.586;2024-03-08T13:01:28;17.33;;;9.23;;
71164;SDS011;58859;55.132;-1.586;2024-03-08T13:03:55;20.80;;;9.50;;
71164;SDS011;58859;55.132;-1.586;2024-03-08T13:06:20;18.70;;;9.10;;
71164;SDS011;58859;55.132;-1.586;2024-03-08T13:08:52;20.00;;;9.50;;
71164;SDS011;58859;55.132;-1.586;2024-03-08T13:11:18;19.65;;;8.95;;
71164;SDS011;58859;55.132;-1.586;2024-03-08T13:13:44;22.65;;;9.70;;
71164;SDS011;58859;55.132;-1.586;2024-03-08T13:16:10;26.40;;;10.98;;
71164;SDS011;58859;55.132;-1.586;2024-03-08T13:18:39;13.98;;;8.05;;
71164;SDS011;58859;55.132;-1.586;2024-03-08T13:21:08;27.07;;;10.37;;
71164;SDS011;58859;55.132;-1.586;2024-03-08T13:23:39;21.17;;;9.40;;
71164;SDS011;58859;55.132;-1.586;2024-03-08T13:26:06;16.50;;;9.18;;
71164;SDS011;58859;55.132;-1.586;2024-03-08T13:28:33;20.25;;;9.00;;
71164;SDS011;58859;55.132;-1.586;2024-03-08T13:31:05;21.65;;;10.43;;
71164;SDS011;58859;55.132;-1.586;2024-03-08T13:33:35;18.23;;;9.00;;
71164;SDS011;58859;55.132;-1.586;2024-03-08T13:36:02;21.13;;;7.82;;
71164;SDS011;58859;55.132;-1.586;2024-03-08T13:38:31;22.05;;;10.35;;
71164;SDS011;58859;55.132;-1.586;2024-03-08T13:40:58;16.50;;;9.90;;
71164;SDS011;58859;55.132;-1.586;2024-03-08T13:43:23;25.45;;;12.23;;
71164;SDS011;58859;55.132;-1.586;2024-03-08T13:45:49;20.73;;;10.90;;
71164;SDS011;58859;55.132;-1.586;2024-03-08T13:48:15;18.07;;;8.70;;
71164;SDS011;58859;55.132;-1.586;2024-03-08T13:50:41;27.65;;;11.73;;
71164;SDS011;58859;55.132;-1.586;2024-03-08T13:53:06;16.03;;;9.00;;
71164;SDS011;58859;55.132;-1.586;2024-03-08T13:55:32;25.77;;;11.35;;
71164;SDS011;58859;55.132;-1.586;2024-03-08T13:57:58;26.02;;;10.80;;
71164;SDS011;58859;55.132;-1.586;2024-03-08T14:00:24;18.73;;;8.13;;
71164;SDS011;58859;55.132;-1.586;2024-03-08T14:02:52;18.20;;;9.90;;
71164;SDS011;58859;55.132;-1.586;2024-03-08T14:05:19;21.17;;;10.15;;
71164;SDS011;58859;55.132;-1.586;2024-03-08T14:07:44;20.87;;;9.93;;
71164;SDS011;58859;55.132;-1.586;2024-03-08T14:10:12;21.20;;;10.30;;
71164;SDS011;58859;55.132;-1.586;2024-03-08T14:12:37;25.97;;;11.73;;
71164;SDS011;58859;55.132;-1.586;2024-03-08T14:15:04;26.20;;;10.73;;
71164;SDS011;58859;55.132;-1.586;2024-03-08T14:17:31;17.98;;;10.20;;
71164;SDS011;58859;55.132;-1.586;2024-03-08T14:19:58;18.25;;;9.40;;
71164;SDS011;58859;55.132;-1.586;2024-03-08T14:22:24;15.30;;;8.43;;
71164;SDS011;58859;55.132;-1.586;2024-03-08T14:24:49;22.77;;;10.23;;
71164;SDS011;58859;55.132;-1.586;2024-03-08T14:27:16;24.92;;;13.98;;
71164;SDS011;58859;55.132;-1.586;2024-03-08T14:29:43;17.70;;;10.00;;